Time;durP1;ratioP1;P1;durP2;ratioP2;P2;SDS_P1;SDS_P2;PMS_P1;PMS_P2;Temp;Humidity;BMP_temperature;BMP_pressure;BME280_temperature;BME280_humidity;BME280_pressure;Samples;Min_cycle;Max_cycle;Signal;HPM_P1;HPM_P2
2022/10/13 00:02:03;;;;;;;9.18;5.90;;;14.40;99.90;;;;;;7392365;19;20145;-77
2022/10/13 00:04:29;;;;;;;8.57;6.18;;;14.30;99.90;;;;;;7390703;19;21092;-75
2022/10/13 00:06:55;;;;;;;8.40;5.72;;;14.30;99.90;;;;;;7390164;19;20181;-75
2022/10/13 00:09:20;;;;;;;9.63;5.90;;;14.20;99.90;;;;;;7389629;19;20138;-76
2022/10/13 00:11:46;;;;;;;8.63;6.05;;;14.40;99.90;;;;;;7393030;19;20153;-77
2022/10/13 00:14:13;;;;;;;10.65;6.07;;;14.30;99.90;;;;;;7391800;19;20151;-77
2022/10/13 00:16:39;;;;;;;13.55;6.95;;;14.10;99.90;;;;;;7390803;19;20141;-76
2022/10/13 00:19:05;;;;;;;12.40;6.70;;;14.30;99.90;;;;;;7391087;19;20127;-76
2022/10/13 00:21:31;;;;;;;9.85;6.38;;;14.40;99.90;;;;;;7392685;19;20131;-76
2022/10/13 00:23:56;;;;;;;9.80;6.65;;;14.50;99.90;;;;;;7393604;19;20517;-77
2022/10/13 00:26:24;;;;;;;10.35;6.32;;;14.70;99.90;;;;;;7390317;19;20135;-76
2022/10/13 00:28:50;;;;;;;12.73;6.60;;;14.70;99.90;;;;;;7391049;19;20134;-77
2022/10/13 00:31:23;;;;;;;12.25;7.00;;;14.80;99.90;;;;;;7385602;19;20139;-76
2022/10/13 00:33:50;;;;;;;13.38;5.97;;;14.60;99.90;;;;;;7391974;19;20179;-75
2022/10/13 00:36:16;;;;;;;11.02;6.47;;;14.50;99.90;;;;;;7392103;19;20167;-77
2022/10/13 00:38:42;;;;;;;9.63;6.38;;;14.60;99.90;;;;;;7390746;19;20135;-77
2022/10/13 00:41:08;;;;;;;10.15;6.93;;;14.80;99.90;;;;;;7392840;19;20159;-75
2022/10/13 00:43:58;;;;;;;8.60;6.65;;;14.60;99.90;;;;;;7389634;19;20165;-76
2022/10/13 00:46:35;;;;;;;10.60;6.80;;;14.60;99.90;;;;;;7391963;19;20138;-76
2022/10/13 00:49:15;;;;;;;12.93;7.25;;;14.80;99.90;;;;;;7387703;19;20166;-76
2022/10/13 00:51:44;;;;;;;13.38;7.57;;;14.60;99.90;;;;;;7387731;19;20149;-77
2022/10/13 00:54:14;;;;;;;13.43;7.68;;;14.60;99.90;;;;;;7391672;19;20596;-76
2022/10/13 00:56:41;;;;;;;11.23;7.90;;;14.60;99.90;;;;;;7392776;19;20149;-76
2022/10/13 00:59:22;;;;;;;15.90;8.80;;;14.70;99.90;;;;;;7389183;19;20138;-77
2022/10/13 01:01:51;;;;;;;13.20;8.65;;;14.80;99.90;;;;;;7389245;19;20517;-76
2022/10/13 01:04:21;;;;;;;12.55;8.00;;;14.80;99.90;;;;;;7386081;19;20515;-77
2022/10/13 01:06:47;;;;;;;13.73;7.97;;;14.40;99.90;;;;;;7391817;19;20165;-76
2022/10/13 01:09:13;;;;;;;10.48;7.10;;;14.00;99.90;;;;;;7389350;19;20600;-75
2022/10/13 01:12:09;;;;;;;11.18;7.32;;;14.00;99.90;;;;;;7387661;19;20167;-76
2022/10/13 01:15:04;;;;;;;12.90;7.55;;;14.20;99.90;;;;;;7388946;19;20139;-77
2022/10/13 01:17:33;;;;;;;14.73;7.93;;;14.20;99.90;;;;;;7388753;19;20139;-77
2022/10/13 01:20:20;;;;;;;12.40;8.43;;;14.10;99.90;;;;;;7388133;19;20158;-77
2022/10/13 01:23:15;;;;;;;12.93;8.65;;;13.90;99.90;;;;;;7388349;19;20491;-76
2022/10/13 01:25:57;;;;;;;16.07;8.53;;;14.00;99.90;;;;;;7392297;19;20139;-77
2022/10/13 01:29:05;;;;;;;13.70;8.18;;;14.20;99.90;;;;;;7389567;19;20245;-78
2022/10/13 01:32:02;;;;;;;14.48;8.43;;;14.30;99.90;;;;;;7389083;19;20172;-78
2022/10/13 01:34:33;;;;;;;13.87;8.27;;;14.30;99.90;;;;;;7390373;19;20210;-77
2022/10/13 01:37:50;;;;;;;17.60;8.38;;;14.20;99.90;;;;;;7389126;19;20154;-75
2022/10/13 01:40:39;;;;;;;11.93;7.97;;;14.00;99.90;;;;;;7387994;19;20599;-77
2022/10/13 01:43:31;;;;;;;12.88;8.27;;;14.30;99.90;;;;;;7390766;19;20142;-75
2022/10/13 01:46:12;;;;;;;13.20;8.57;;;14.60;99.90;;;;;;7387026;19;20150;-78
2022/10/13 01:48:39;;;;;;;14.65;8.90;;;14.60;99.90;;;;;;7386717;19;20161;-77
2022/10/13 01:51:08;;;;;;;12.57;8.35;;;14.50;99.90;;;;;;7388751;19;20159;-76
2022/10/13 01:53:34;;;;;;;11.85;8.00;;;14.40;99.90;;;;;;7387482;19;20138;-76
2022/10/13 01:56:00;;;;;;;12.88;7.40;;;14.50;99.90;;;;;;7389776;19;20170;-76
2022/10/13 01:58:29;;;;;;;15.15;8.40;;;14.60;99.90;;;;;;7385893;19;20139;-77
2022/10/13 02:01:20;;;;;;;14.30;8.55;;;14.60;99.90;;;;;;7389353;19;20366;-76
2022/10/13 02:04:17;;;;;;;13.90;8.30;;;14.60;99.90;;;;;;7388799;19;20157;-76
2022/10/13 02:06:50;;;;;;;15.20;9.23;;;14.60;99.90;;;;;;7387263;19;20166;-76
2022/10/13 02:09:45;;;;;;;14.13;8.40;;;14.60;99.90;;;;;;7387454;19;20139;-76
2022/10/13 02:12:21;;;;;;;16.08;8.98;;;14.70;99.90;;;;;;7388348;19;20221;-75
2022/10/13 02:14:48;;;;;;;14.25;8.45;;;14.70;99.90;;;;;;7387309;19;20156;-76
2022/10/13 02:17:15;;;;;;;11.70;8.17;;;14.70;99.90;;;;;;7386523;19;20161;-76
2022/10/13 02:19:42;;;;;;;12.30;8.33;;;14.70;99.90;;;;;;7387629;19;20154;-77
2022/10/13 02:22:14;;;;;;;15.57;8.25;;;14.60;99.90;;;;;;7386710;19;20204;-76
2022/10/13 02:24:39;;;;;;;14.40;9.60;;;14.60;99.90;;;;;;7389547;19;20150;-77
2022/10/13 02:27:06;;;;;;;14.35;9.07;;;14.90;99.90;;;;;;7386942;19;20134;-75
2022/10/13 02:29:33;;;;;;;16.67;9.23;;;14.70;99.90;;;;;;7384572;19;20142;-76
2022/10/13 02:32:01;;;;;;;13.93;8.98;;;14.70;99.90;;;;;;7383249;19;20150;-75
2022/10/13 02:34:27;;;;;;;12.57;8.18;;;14.70;99.90;;;;;;7385077;19;20135;-76
2022/10/13 02:36:53;;;;;;;12.88;8.30;;;14.80;99.90;;;;;;7387321;19;20151;-76
2022/10/13 02:39:19;;;;;;;11.48;7.20;;;14.80;99.90;;;;;;7388366;19;20163;-76
2022/10/13 02:41:45;;;;;;;13.73;7.87;;;14.80;99.90;;;;;;7389251;19;20143;-79
2022/10/13 02:44:10;;;;;;;14.50;9.10;;;14.70;99.90;;;;;;7390249;19;20142;-80
2022/10/13 02:46:36;;;;;;;14.35;7.60;;;14.50;99.90;;;;;;7389027;19;20182;-79
2022/10/13 02:49:02;;;;;;;12.57;7.13;;;14.50;99.90;;;;;;7388145;19;20218;-79
2022/10/13 02:51:28;;;;;;;15.45;7.95;;;14.60;99.90;;;;;;7394593;19;20205;-80
2022/10/13 02:53:54;;;;;;;12.40;8.23;;;14.50;99.90;;;;;;7394937;19;20154;-79
2022/10/13 02:56:19;;;;;;;13.02;7.93;;;14.30;99.90;;;;;;7395686;19;20142;-80
2022/10/13 02:58:45;;;;;;;14.60;8.48;;;14.50;99.90;;;;;;7395568;19;20449;-80
2022/10/13 03:01:13;;;;;;;12.63;8.17;;;14.70;99.90;;;;;;7395174;19;20154;-79
2022/10/13 03:03:40;;;;;;;12.95;7.82;;;14.70;99.90;;;;;;7393957;19;20178;-80
2022/10/13 03:06:09;;;;;;;12.80;8.23;;;14.80;99.90;;;;;;7395382;19;20154;-79
2022/10/13 03:08:35;;;;;;;11.95;7.40;;;14.70;99.90;;;;;;7395056;19;20168;-79
2022/10/13 03:11:01;;;;;;;15.07;7.82;;;14.80;99.90;;;;;;7394634;19;20158;-78
2022/10/13 03:13:27;;;;;;;13.07;8.30;;;14.80;99.90;;;;;;7393932;19;20146;-79
2022/10/13 03:15:52;;;;;;;16.55;9.13;;;14.70;99.90;;;;;;7394099;19;20341;-80
2022/10/13 03:18:18;;;;;;;15.40;8.10;;;14.70;99.90;;;;;;7395557;19;20513;-80
2022/10/13 03:20:44;;;;;;;14.65;9.00;;;14.70;99.90;;;;;;7393173;19;20154;-79
2022/10/13 03:23:10;;;;;;;15.23;9.33;;;14.80;99.90;;;;;;7394546;19;20159;-80
2022/10/13 03:25:36;;;;;;;12.43;8.20;;;14.80;99.90;;;;;;7395342;19;20163;-80
2022/10/13 03:28:02;;;;;;;14.13;8.13;;;14.80;99.90;;;;;;7396769;19;20627;-80
2022/10/13 03:30:28;;;;;;;15.38;8.43;;;14.90;99.90;;;;;;7393020;19;20163;-79
2022/10/13 03:32:54;;;;;;;12.02;8.35;;;14.80;99.90;;;;;;7393611;19;20154;-79
2022/10/13 03:35:20;;;;;;;14.68;8.57;;;14.90;99.90;;;;;;7395759;19;20194;-80
2022/10/13 03:37:45;;;;;;;14.82;9.10;;;14.80;99.90;;;;;;7393001;19;20130;-80
2022/10/13 03:40:11;;;;;;;17.67;8.90;;;14.80;99.90;;;;;;7394438;19;20143;-80
2022/10/13 03:42:38;;;;;;;14.57;8.45;;;14.40;99.90;;;;;;7394329;19;20156;-79
2022/10/13 03:45:04;;;;;;;14.82;8.38;;;14.40;99.90;;;;;;7392293;19;20550;-80
2022/10/13 03:47:30;;;;;;;11.80;8.27;;;14.50;99.90;;;;;;7393664;19;20135;-80
2022/10/13 03:49:56;;;;;;;18.63;8.93;;;14.60;99.90;;;;;;7390511;19;20154;-79
2022/10/13 03:52:22;;;;;;;11.90;8.85;;;14.80;99.90;;;;;;7394080;19;20135;-80
2022/10/13 03:54:48;;;;;;;15.80;9.10;;;14.80;99.90;;;;;;7395418;19;20172;-80
2022/10/13 03:57:14;;;;;;;17.30;8.80;;;14.80;99.90;;;;;;7391303;19;20135;-79
2022/10/13 03:59:40;;;;;;;18.67;9.63;;;14.80;99.90;;;;;;7394237;19;20647;-81
2022/10/13 04:02:09;;;;;;;12.48;8.30;;;14.80;99.90;;;;;;7390375;19;20175;-81
2022/10/13 04:04:37;;;;;;;11.73;7.50;;;14.90;99.90;;;;;;7392535;19;20214;-79
2022/10/13 04:07:02;;;;;;;14.18;8.85;;;14.70;99.90;;;;;;7390781;19;20146;-79
2022/10/13 04:09:28;;;;;;;16.17;8.55;;;14.70;99.90;;;;;;7390090;19;20153;-78
2022/10/13 04:11:54;;;;;;;13.75;8.57;;;14.80;99.90;;;;;;7392662;19;20587;-81
2022/10/13 04:14:20;;;;;;;15.32;8.63;;;14.70;99.90;;;;;;7391193;19;20138;-80
2022/10/13 04:16:46;;;;;;;12.68;7.63;;;14.70;99.90;;;;;;7392577;19;20138;-79
2022/10/13 04:19:13;;;;;;;15.90;8.60;;;14.80;99.90;;;;;;7393898;19;20137;-80
2022/10/13 04:21:40;;;;;;;14.33;9.23;;;14.80;99.90;;;;;;7393454;19;20142;-78
2022/10/13 04:24:06;;;;;;;12.50;8.27;;;14.80;99.90;;;;;;7392849;19;20202;-79
2022/10/13 04:26:34;;;;;;;11.87;7.80;;;14.80;99.90;;;;;;7392475;19;20208;-78
2022/10/13 04:29:03;;;;;;;11.53;7.60;;;14.80;99.90;;;;;;7388985;19;20611;-78
2022/10/13 04:31:30;;;;;;;13.93;9.02;;;14.80;99.90;;;;;;7393591;19;20147;-80
2022/10/13 04:33:56;;;;;;;14.35;8.57;;;15.00;99.90;;;;;;7393974;19;20170;-80
2022/10/13 04:36:21;;;;;;;16.90;8.23;;;14.90;99.90;;;;;;7393177;19;20138;-80
2022/10/13 04:38:47;;;;;;;13.52;8.00;;;14.60;99.90;;;;;;7390101;19;20929;-80
2022/10/13 04:41:15;;;;;;;14.80;9.10;;;14.50;99.90;;;;;;7391219;19;20149;-81
2022/10/13 04:43:41;;;;;;;11.37;8.23;;;14.70;99.90;;;;;;7392357;19;20146;-80
2022/10/13 04:46:11;;;;;;;13.25;8.18;;;14.70;99.90;;;;;;7393606;19;20126;-80
2022/10/13 04:48:37;;;;;;;13.98;8.25;;;14.60;99.90;;;;;;7390054;19;20174;-80
2022/10/13 04:51:08;;;;;;;17.13;7.90;;;14.60;99.90;;;;;;7393005;19;20216;-80
2022/10/13 04:53:35;;;;;;;11.57;8.02;;;14.60;99.90;;;;;;7392980;19;20525;-80
2022/10/13 04:56:04;;;;;;;13.85;7.85;;;14.60;99.90;;;;;;7393314;19;20544;-79
2022/10/13 04:58:31;;;;;;;10.98;8.00;;;14.60;99.90;;;;;;7391146;19;20139;-79
2022/10/13 05:00:57;;;;;;;11.27;7.30;;;14.70;99.90;;;;;;7393035;19;20515;-79
2022/10/13 05:03:23;;;;;;;10.40;7.43;;;14.60;99.90;;;;;;7391943;19;20147;-79
2022/10/13 05:05:49;;;;;;;12.75;8.30;;;14.70;99.90;;;;;;7391727;19;20631;-80
2022/10/13 05:08:15;;;;;;;12.10;8.18;;;14.70;99.90;;;;;;7388848;19;20175;-79
2022/10/13 05:10:41;;;;;;;15.40;7.30;;;14.80;99.90;;;;;;7390905;19;20530;-79
2022/10/13 05:13:07;;;;;;;11.05;7.53;;;14.70;99.90;;;;;;7392245;19;20239;-79
2022/10/13 05:15:33;;;;;;;12.15;7.18;;;14.60;99.90;;;;;;7389198;19;20239;-80
2022/10/13 05:17:59;;;;;;;10.55;8.07;;;14.50;99.90;;;;;;7389973;19;20543;-80
2022/10/13 05:20:25;;;;;;;11.75;8.35;;;14.50;99.90;;;;;;7390121;19;20188;-79
2022/10/13 05:22:51;;;;;;;10.88;7.40;;;14.60;99.90;;;;;;7391918;19;20138;-79
2022/10/13 05:25:17;;;;;;;12.23;6.93;;;14.50;99.90;;;;;;7389883;19;20206;-79
2022/10/13 05:27:45;;;;;;;12.65;8.05;;;14.70;99.90;;;;;;7391041;19;20137;-78
2022/10/13 05:30:11;;;;;;;11.77;8.03;;;14.80;99.90;;;;;;7385337;19;20278;-79
2022/10/13 05:32:37;;;;;;;12.25;7.72;;;14.80;99.90;;;;;;7389395;19;20151;-78
2022/10/13 05:35:03;;;;;;;14.40;8.43;;;14.90;99.90;;;;;;7387695;19;20176;-80
2022/10/13 05:37:28;;;;;;;13.18;7.47;;;14.60;99.90;;;;;;7388037;19;20151;-79
2022/10/13 05:39:54;;;;;;;11.20;7.63;;;14.70;99.90;;;;;;7387115;19;20181;-79
2022/10/13 05:42:20;;;;;;;16.05;8.00;;;14.70;99.90;;;;;;7388811;19;20576;-80
2022/10/13 05:44:46;;;;;;;10.52;7.57;;;14.70;99.90;;;;;;7385825;19;20130;-79
2022/10/13 05:47:11;;;;;;;12.18;7.43;;;14.70;99.90;;;;;;7390871;19;20147;-78
2022/10/13 05:49:38;;;;;;;14.43;8.37;;;14.80;99.90;;;;;;7384720;19;20127;-77
2022/10/13 05:52:09;;;;;;;12.37;7.60;;;15.10;99.90;;;;;;7387383;19;20619;-79
2022/10/13 05:54:40;;;;;;;13.50;8.75;;;15.00;99.90;;;;;;7390714;19;20131;-78
2022/10/13 05:57:12;;;;;;;17.05;8.48;;;14.90;99.90;;;;;;7388336;19;20135;-79
2022/10/13 05:59:42;;;;;;;15.90;8.95;;;14.90;99.90;;;;;;7386587;19;20130;-79
2022/10/13 06:02:11;;;;;;;16.63;8.45;;;14.90;99.90;;;;;;7383167;19;20150;-79
2022/10/13 06:04:41;;;;;;;14.73;8.90;;;14.80;99.90;;;;;;7384364;19;20181;-79
2022/10/13 06:07:08;;;;;;;15.68;8.50;;;14.90;99.90;;;;;;7385874;19;20214;-79
2022/10/13 06:09:39;;;;;;;11.93;8.52;;;14.90;99.90;;;;;;7384155;19;20150;-78
2022/10/13 06:12:06;;;;;;;14.17;8.23;;;14.80;99.90;;;;;;7384905;19;20127;-79
2022/10/13 06:14:31;;;;;;;13.98;8.60;;;14.80;99.90;;;;;;7385730;19;20130;-78
2022/10/13 06:16:57;;;;;;;13.48;8.13;;;14.60;99.90;;;;;;7385013;19;20150;-79
2022/10/13 06:19:24;;;;;;;13.50;7.75;;;14.70;99.90;;;;;;7386536;19;20138;-78
2022/10/13 06:21:50;;;;;;;13.40;7.88;;;14.60;99.90;;;;;;7384787;19;20142;-80
2022/10/13 06:24:15;;;;;;;16.00;8.55;;;14.70;99.90;;;;;;7386614;19;20141;-79
2022/10/13 06:26:41;;;;;;;14.85;8.65;;;14.80;99.90;;;;;;7386059;19;20458;-79
2022/10/13 06:29:10;;;;;;;14.02;7.93;;;14.90;99.90;;;;;;7384396;19;20141;-80
2022/10/13 06:31:35;;;;;;;17.55;8.55;;;15.00;99.90;;;;;;7385301;19;20134;-81
2022/10/13 06:34:01;;;;;;;12.35;8.48;;;15.10;99.90;;;;;;7388928;19;20161;-81
2022/10/13 06:36:27;;;;;;;13.70;8.95;;;15.00;99.90;;;;;;7385355;19;20381;-79
2022/10/13 06:38:53;;;;;;;12.48;7.45;;;15.00;99.90;;;;;;7392365;19;20138;-80
2022/10/13 06:41:19;;;;;;;15.52;8.15;;;15.10;99.90;;;;;;7389031;19;20496;-79
2022/10/13 06:43:44;;;;;;;12.23;8.48;;;15.00;99.90;;;;;;7389537;19;20206;-80
2022/10/13 06:46:11;;;;;;;13.52;8.50;;;15.00;99.90;;;;;;7388829;19;20130;-80
2022/10/13 06:48:37;;;;;;;15.45;8.73;;;14.90;99.90;;;;;;7388517;19;20203;-80
2022/10/13 06:51:09;;;;;;;11.95;8.00;;;15.00;99.90;;;;;;7390675;19;20138;-79
2022/10/13 06:53:36;;;;;;;14.75;8.00;;;14.80;99.90;;;;;;7392042;19;20277;-80
2022/10/13 06:56:03;;;;;;;15.15;7.80;;;14.70;99.90;;;;;;7391111;19;20139;-81
2022/10/13 06:58:29;;;;;;;15.18;7.75;;;14.90;99.90;;;;;;7389519;19;20655;-79
2022/10/13 07:00:55;;;;;;;17.33;8.20;;;14.90;99.90;;;;;;7393822;19;20158;-82
2022/10/13 07:03:22;;;;;;;17.17;9.13;;;14.90;99.90;;;;;;7394300;19;20223;-79
2022/10/13 07:05:48;;;;;;;14.57;8.63;;;15.00;99.90;;;;;;7391577;19;20151;-80
2022/10/13 07:08:14;;;;;;;11.00;7.65;;;15.00;99.90;;;;;;7389609;19;20205;-81
2022/10/13 07:10:40;;;;;;;12.73;7.95;;;15.10;99.90;;;;;;7389438;19;20157;-82
2022/10/13 07:13:06;;;;;;;11.90;8.15;;;15.00;99.90;;;;;;7391372;19;20146;-80
2022/10/13 07:15:32;;;;;;;10.27;7.55;;;15.10;99.90;;;;;;7392121;19;20139;-82
2022/10/13 07:17:58;;;;;;;13.55;7.78;;;15.00;99.90;;;;;;7390023;19;20131;-80
2022/10/13 07:20:24;;;;;;;13.27;8.50;;;15.00;99.90;;;;;;7388344;19;20149;-80
2022/10/13 07:22:53;;;;;;;13.02;6.95;;;15.20;99.90;;;;;;7388338;19;20672;-81
2022/10/13 07:25:20;;;;;;;11.70;7.28;;;15.10;99.90;;;;;;7390952;19;20139;-80
2022/10/13 07:27:45;;;;;;;16.52;7.07;;;15.20;99.90;;;;;;7391144;19;20130;-79
2022/10/13 07:30:12;;;;;;;12.15;7.55;;;15.20;99.90;;;;;;7387623;19;20207;-80
2022/10/13 07:32:40;;;;;;;13.02;8.10;;;15.20;99.90;;;;;;7388969;19;20164;-78
2022/10/13 07:35:08;;;;;;;12.50;7.47;;;15.30;99.90;;;;;;7391511;19;20159;-82
2022/10/13 07:37:34;;;;;;;16.70;8.63;;;15.20;99.90;;;;;;7394944;19;20131;-81
2022/10/13 07:40:00;;;;;;;12.13;7.47;;;15.20;99.90;;;;;;7394009;19;20138;-80
2022/10/13 07:42:29;;;;;;;13.98;9.38;;;15.20;99.90;;;;;;7392957;19;20142;-79
2022/10/13 07:44:56;;;;;;;12.20;7.28;;;15.30;99.90;;;;;;7393708;19;20147;-81
2022/10/13 07:47:21;;;;;;;13.82;8.63;;;15.30;99.90;;;;;;7395989;19;20141;-78
2022/10/13 07:49:47;;;;;;;13.85;7.53;;;15.50;99.90;;;;;;7388890;19;20162;-79
2022/10/13 07:52:13;;;;;;;14.35;7.88;;;15.50;99.90;;;;;;7391166;19;20173;-79
2022/10/13 07:54:39;;;;;;;16.35;7.95;;;15.40;99.90;;;;;;7391338;19;20164;-81
2022/10/13 07:57:04;;;;;;;10.98;7.18;;;15.20;99.90;;;;;;7390508;19;20142;-81
2022/10/13 07:59:34;;;;;;;13.20;6.97;;;15.30;99.90;;;;;;7400081;19;20154;-80
2022/10/13 08:02:00;;;;;;;13.35;7.22;;;15.30;99.90;;;;;;7390718;19;20146;-80
2022/10/13 08:04:30;;;;;;;11.38;6.65;;;15.50;99.90;;;;;;7389899;19;20158;-80
2022/10/13 08:06:56;;;;;;;12.90;7.45;;;15.50;99.90;;;;;;7389432;19;20251;-79
2022/10/13 08:09:22;;;;;;;9.60;6.50;;;15.80;99.90;;;;;;7391286;19;20135;-81
2022/10/13 08:11:47;;;;;;;14.85;7.47;;;15.60;99.90;;;;;;7396845;19;20138;-81
2022/10/13 08:14:13;;;;;;;13.85;7.28;;;15.70;99.90;;;;;;7392888;19;20168;-81
2022/10/13 08:16:40;;;;;;;11.23;6.85;;;15.80;99.90;;;;;;7399418;19;20130;-79
2022/10/13 08:19:06;;;;;;;11.90;7.55;;;15.80;99.90;;;;;;7390157;19;20410;-80
2022/10/13 08:21:32;;;;;;;13.65;7.30;;;15.90;99.90;;;;;;7385447;19;20446;-79
2022/10/13 08:23:58;;;;;;;12.43;6.60;;;15.90;99.90;;;;;;7403388;19;20135;-80
2022/10/13 08:26:27;;;;;;;11.55;7.28;;;15.80;99.90;;;;;;7395106;19;20123;-79
2022/10/13 08:28:53;;;;;;;13.80;7.68;;;15.90;99.90;;;;;;7390966;19;20161;-81
2022/10/13 08:31:21;;;;;;;10.45;6.30;;;15.90;99.90;;;;;;7393332;19;20154;-78
2022/10/13 08:33:47;;;;;;;14.18;6.05;;;15.90;99.90;;;;;;7391188;19;20229;-79
2022/10/13 08:36:16;;;;;;;20.17;7.60;;;15.80;99.90;;;;;;7390444;19;20172;-80
2022/10/13 08:38:43;;;;;;;13.95;6.45;;;15.80;99.90;;;;;;7388758;19;20139;-80
2022/10/13 08:41:25;;;;;;;10.80;6.93;;;15.90;99.90;;;;;;7390803;19;20137;-80
2022/10/13 08:43:57;;;;;;;14.27;7.38;;;15.90;99.90;;;;;;7392632;19;20146;-80
2022/10/13 08:46:32;;;;;;;11.20;6.63;;;15.80;99.90;;;;;;7389621;19;20624;-81
2022/10/13 08:49:00;;;;;;;11.35;6.47;;;16.00;99.90;;;;;;7388177;19;20142;-79
2022/10/13 08:51:27;;;;;;;8.80;5.80;;;16.00;99.90;;;;;;7390907;19;20135;-79
2022/10/13 08:53:53;;;;;;;11.32;5.88;;;16.00;99.90;;;;;;7391475;19;20158;-79
2022/10/13 08:56:41;;;;;;;11.30;5.45;;;16.10;99.90;;;;;;7393086;19;20134;-78
2022/10/13 08:59:12;;;;;;;10.35;5.95;;;16.20;99.90;;;;;;7391436;19;20217;-79
2022/10/13 09:01:39;;;;;;;10.70;5.40;;;16.30;99.90;;;;;;7389068;19;20129;-80
2022/10/13 09:04:20;;;;;;;9.10;5.22;;;16.30;99.90;;;;;;7389697;19;20171;-80
2022/10/13 09:07:05;;;;;;;11.98;8.70;;;16.30;99.90;;;;;;7391792;19;20161;-80
2022/10/13 09:09:31;;;;;;;8.85;5.80;;;16.30;99.90;;;;;;7388149;19;20150;-79
2022/10/13 09:11:58;;;;;;;9.82;5.13;;;16.30;99.90;;;;;;7390526;19;20201;-79
2022/10/13 09:14:33;;;;;;;11.00;7.53;;;16.40;99.90;;;;;;7389369;19;20615;-79
2022/10/13 09:17:15;;;;;;;11.98;6.40;;;16.40;99.90;;;;;;7389870;19;20138;-81
2022/10/13 09:19:41;;;;;;;11.68;6.03;;;16.50;99.90;;;;;;7389733;19;20135;-79
2022/10/13 09:22:20;;;;;;;8.63;5.25;;;16.60;99.90;;;;;;7390464;19;20147;-79
2022/10/13 09:24:45;;;;;;;8.43;5.28;;;16.60;99.90;;;;;;7390503;19;20138;-80
2022/10/13 09:27:14;;;;;;;9.68;4.60;;;16.70;99.90;;;;;;7389867;19;20163;-79
2022/10/13 09:29:42;;;;;;;5.90;4.53;;;16.70;99.90;;;;;;7389652;19;20593;-79
2022/10/13 09:32:14;;;;;;;8.00;4.80;;;16.70;99.90;;;;;;7392765;19;20139;-79
2022/10/13 09:34:40;;;;;;;9.65;5.70;;;16.70;99.90;;;;;;7392880;19;20151;-79
2022/10/13 09:37:19;;;;;;;8.85;4.47;;;16.80;99.90;;;;;;7389737;19;20135;-79
2022/10/13 09:39:46;;;;;;;7.97;4.88;;;16.80;99.90;;;;;;7391810;19;20130;-79
2022/10/13 09:42:28;;;;;;;8.57;5.10;;;16.70;99.90;;;;;;7389241;19;20486;-78
2022/10/13 09:45:01;;;;;;;9.68;4.45;;;16.70;99.90;;;;;;7389557;19;20134;-79
2022/10/13 09:47:29;;;;;;;8.65;4.63;;;16.90;99.90;;;;;;7390314;19;20131;-79
2022/10/13 09:50:21;;;;;;;8.75;4.65;;;16.70;99.90;;;;;;7392443;19;20863;-79
2022/10/13 09:52:47;;;;;;;8.13;4.22;;;16.80;99.90;;;;;;7391323;19;20154;-80
2022/10/13 09:55:33;;;;;;;6.50;4.40;;;16.70;99.90;;;;;;7391915;19;20131;-79
2022/10/13 09:58:13;;;;;;;10.48;6.47;;;16.80;99.90;;;;;;7387596;19;20138;-78
2022/10/13 10:00:40;;;;;;;8.98;5.18;;;16.80;99.90;;;;;;7388945;19;20150;-79
2022/10/13 10:03:14;;;;;;;9.27;5.57;;;16.80;99.90;;;;;;7388815;19;20177;-79
2022/10/13 10:05:55;;;;;;;13.85;6.93;;;16.80;99.90;;;;;;7390709;19;20138;-79
2022/10/13 10:08:30;;;;;;;7.32;5.60;;;16.80;99.90;;;;;;7386455;19;20242;-78
2022/10/13 10:10:59;;;;;;;9.95;3.95;;;16.90;99.90;;;;;;7390028;19;20667;-80
2022/10/13 10:13:25;;;;;;;6.60;3.70;;;16.80;99.90;;;;;;7392016;19;20186;-78
2022/10/13 10:15:53;;;;;;;13.50;10.45;;;16.90;99.90;;;;;;7389971;19;20172;-79
2022/10/13 10:18:47;;;;;;;8.27;5.40;;;17.10;99.90;;;;;;7390522;19;20509;-78
2022/10/13 10:21:47;;;;;;;8.18;4.45;;;17.10;99.90;;;;;;7387883;19;20161;-78
2022/10/13 10:24:51;;;;;;;5.78;4.25;;;17.10;99.90;;;;;;7390722;19;20142;-79
2022/10/13 10:27:34;;;;;;;8.13;4.15;;;17.00;99.90;;;;;;7390218;19;20131;-80
2022/10/13 10:30:05;;;;;;;6.95;4.15;;;17.00;99.90;;;;;;7389470;19;20130;-80
2022/10/13 10:32:54;;;;;;;12.00;3.80;;;17.10;99.90;;;;;;7387419;19;20596;-79
2022/10/13 10:35:33;;;;;;;8.52;4.85;;;17.10;99.90;;;;;;7389817;19;20142;-78
2022/10/13 10:38:29;;;;;;;7.88;5.35;;;17.10;99.90;;;;;;7390746;19;20157;-78
2022/10/13 10:41:00;;;;;;;7.07;5.05;;;17.10;99.90;;;;;;7389271;19;20137;-79
2022/10/13 10:43:38;;;;;;;6.13;4.70;;;17.10;99.90;;;;;;7390040;19;20130;-79
2022/10/13 10:46:10;;;;;;;8.90;4.85;;;17.10;99.90;;;;;;7386709;19;20576;-79
2022/10/13 10:48:38;;;;;;;9.50;4.30;;;17.00;99.90;;;;;;7392689;19;20178;-76
2022/10/13 10:51:10;;;;;;;9.82;4.03;;;17.00;99.90;;;;;;7389416;19;20542;-77
2022/10/13 10:53:49;;;;;;;8.60;5.07;;;17.00;99.90;;;;;;7386870;19;20218;-78
2022/10/13 10:56:18;;;;;;;9.52;5.30;;;17.00;99.90;;;;;;7386415;19;20582;-77
2022/10/13 10:58:57;;;;;;;11.70;4.90;;;17.10;99.90;;;;;;7386038;19;20238;-79
2022/10/13 11:01:50;;;;;;;6.95;4.38;;;17.10;99.90;;;;;;7387602;19;20535;-78
2022/10/13 11:04:25;;;;;;;6.10;3.55;;;17.10;99.90;;;;;;7383992;19;20242;-79
2022/10/13 11:06:51;;;;;;;5.88;3.58;;;17.00;99.90;;;;;;7384767;19;20174;-80
2022/10/13 11:09:39;;;;;;;7.53;3.90;;;16.90;99.90;;;;;;7385193;19;20194;-77
2022/10/13 11:12:20;;;;;;;7.70;4.68;;;17.10;99.90;;;;;;7392798;19;20492;-79
2022/10/13 11:14:53;;;;;;;12.25;4.07;;;17.10;99.90;;;;;;7392412;19;20583;-78
2022/10/13 11:17:36;;;;;;;8.65;4.80;;;17.30;99.90;;;;;;7394124;19;20679;-78
2022/10/13 11:20:20;;;;;;;7.70;4.82;;;17.30;99.90;;;;;;7393619;19;20135;-78
2022/10/13 11:22:58;;;;;;;7.28;4.95;;;17.30;99.90;;;;;;7393835;19;20589;-78
2022/10/13 11:25:43;;;;;;;7.38;4.75;;;17.30;99.90;;;;;;7392980;19;20138;-77
2022/10/13 11:28:26;;;;;;;10.82;4.10;;;17.30;99.90;;;;;;7391556;19;20162;-76
2022/10/13 11:30:56;;;;;;;7.55;4.10;;;17.40;99.90;;;;;;7392712;19;20139;-77
2022/10/13 11:33:32;;;;;;;5.45;3.35;;;17.40;99.90;;;;;;7391490;19;20687;-77
2022/10/13 11:36:38;;;;;;;7.43;5.30;;;17.40;99.90;;;;;;7394684;19;20145;-77
2022/10/13 11:39:15;;;;;;;7.78;5.43;;;17.40;99.90;;;;;;7392272;19;20138;-77
2022/10/13 11:42:03;;;;;;;7.80;4.53;;;17.30;99.90;;;;;;7393590;19;20143;-78
2022/10/13 11:44:48;;;;;;;12.75;5.25;;;17.30;99.90;;;;;;7393726;19;20881;-78
2022/10/13 11:47:32;;;;;;;6.85;3.90;;;17.40;99.90;;;;;;7391892;19;20142;-75
2022/10/13 11:50:21;;;;;;;8.98;4.95;;;17.50;99.90;;;;;;7406655;19;20145;-77
2022/10/13 11:53:02;;;;;;;7.47;4.65;;;17.50;99.90;;;;;;7410237;19;20521;-78
2022/10/13 11:55:41;;;;;;;7.30;4.68;;;17.50;99.90;;;;;;7394602;19;20143;-79
2022/10/13 11:58:29;;;;;;;5.53;4.05;;;17.50;99.90;;;;;;7395656;19;20162;-78
2022/10/13 12:01:13;;;;;;;9.20;4.22;;;17.70;99.90;;;;;;7396276;19;20141;-79
2022/10/13 12:03:42;;;;;;;6.25;4.07;;;17.70;99.90;;;;;;7391764;19;20182;-78
2022/10/13 12:06:32;;;;;;;4.68;3.72;;;17.70;99.90;;;;;;7390740;19;20139;-78
2022/10/13 12:09:01;;;;;;;6.63;3.90;;;17.90;99.90;;;;;;7392180;19;20131;-79
2022/10/13 12:11:29;;;;;;;5.25;3.58;;;17.90;99.90;;;;;;7392558;19;20143;-78
2022/10/13 12:13:56;;;;;;;6.50;3.25;;;17.80;99.90;;;;;;7396685;19;20138;-78
2022/10/13 12:16:22;;;;;;;4.75;3.03;;;17.90;99.90;;;;;;7392334;19;20565;-79
2022/10/13 12:18:48;;;;;;;6.63;3.25;;;17.90;99.90;;;;;;7392709;19;20164;-78
2022/10/13 12:21:16;;;;;;;4.65;2.97;;;17.90;99.90;;;;;;7388415;19;20234;-78
2022/10/13 12:23:42;;;;;;;5.63;3.30;;;18.00;99.90;;;;;;7391676;19;20161;-76
2022/10/13 12:26:21;;;;;;;8.05;3.58;;;18.10;99.90;;;;;;7390995;19;20158;-78
2022/10/13 12:29:02;;;;;;;5.15;3.20;;;18.10;99.90;;;;;;7389830;19;20138;-79
2022/10/13 12:31:46;;;;;;;3.40;2.78;;;18.20;99.90;;;;;;7392100;19;20180;-79
2022/10/13 12:34:26;;;;;;;4.28;2.58;;;18.20;99.90;;;;;;7391533;19;20659;-79
2022/10/13 12:37:09;;;;;;;5.18;2.55;;;18.20;99.90;;;;;;7391665;19;20130;-79
2022/10/13 12:39:36;;;;;;;5.68;2.83;;;18.10;99.90;;;;;;7390212;19;20505;-78
2022/10/13 12:42:03;;;;;;;3.95;2.35;;;18.10;99.90;;;;;;7390045;19;20203;-78
2022/10/13 12:44:31;;;;;;;5.13;2.38;;;18.10;99.90;;;;;;7392164;19;20131;-79
2022/10/13 12:47:02;;;;;;;9.98;3.17;;;18.30;99.90;;;;;;7392668;19;20131;-79
2022/10/13 12:49:35;;;;;;;3.83;2.58;;;18.40;99.90;;;;;;7388464;19;20135;-77
2022/10/13 12:52:18;;;;;;;3.65;2.63;;;18.50;99.90;;;;;;7390023;19;20153;-78
2022/10/13 12:54:50;;;;;;;2.88;2.35;;;18.40;99.90;;;;;;7391326;19;20141;-77
2022/10/13 12:57:20;;;;;;;5.28;2.55;;;18.40;99.90;;;;;;7391118;19;20135;-77
2022/10/13 12:59:46;;;;;;;4.45;2.67;;;18.30;99.90;;;;;;7392611;19;20139;-76
2022/10/13 13:02:19;;;;;;;5.10;2.50;;;18.20;99.90;;;;;;7390950;19;20197;-78